Paramaribo, Paramaribo Zorg en Hoop Airport (SMZO)

NameParamaribo Zorg en Hoop Airport
CityParamaribo
CountrySuriname
ICAOSMZO
IATAORG
Altitude3 m
CoordinatesGoogle Map
Live Air TrafficLiveATC.net
METARSMZO 241800Z 09004KT 0900 +SHRA BKN012 FEW015CB 27/25 Q1012 TEMPO 2500 TSRA
2019-06-24 18:00:00 Wind: East (90°) 2.06 m/s - Visibility: 2500 m - Weather: Heavy Showers Rain / Thunderstorm Rain - Temperature: 27 °C - Dew point: 25 °C - Humidity: 88.8% - Pressure: 1012 hPa

Sorry, no flights used the airport in this database.